sensor_id;sensor_type;location;lat;lon;timestamp;P1;durP1;ratioP1;P2;durP2;ratioP2
52740;SDS011;38634;52.138;9.912;2023-04-03T06:48:11;9.55;;;3.60;;
52740;SDS011;38634;52.138;9.912;2023-04-03T06:50:56;6.35;;;3.08;;
52740;SDS011;38634;52.138;9.912;2023-04-03T06:53:41;2.95;;;2.55;;
52740;SDS011;38634;52.138;9.912;2023-04-03T06:56:26;3.53;;;2.60;;
52740;SDS011;38634;52.138;9.912;2023-04-03T06:59:12;6.38;;;3.85;;
52740;SDS011;38634;52.138;9.912;2023-04-03T07:02:00;4.25;;;2.95;;
52740;SDS011;38634;52.138;9.912;2023-04-03T07:04:44;4.50;;;2.58;;
52740;SDS011;38634;52.138;9.912;2023-04-03T07:07:29;5.55;;;2.83;;
52740;SDS011;38634;52.138;9.912;2023-04-03T07:10:13;5.22;;;3.05;;
52740;SDS011;38634;52.138;9.912;2023-04-03T07:12:58;5.00;;;2.53;;
52740;SDS011;38634;52.138;9.912;2023-04-03T07:15:43;4.80;;;2.70;;
52740;SDS011;38634;52.138;9.912;2023-04-03T07:18:27;5.15;;;3.38;;
52740;SDS011;38634;52.138;9.912;2023-04-03T07:21:12;4.28;;;2.75;;
52740;SDS011;38634;52.138;9.912;2023-04-03T07:23:56;4.30;;;3.22;;
52740;SDS011;38634;52.138;9.912;2023-04-03T07:26:41;6.10;;;3.17;;
52740;SDS011;38634;52.138;9.912;2023-04-03T07:29:26;3.00;;;2.30;;
52740;SDS011;38634;52.138;9.912;2023-04-03T07:32:11;3.10;;;2.35;;
52740;SDS011;38634;52.138;9.912;2023-04-03T07:34:55;5.38;;;3.00;;
52740;SDS011;38634;52.138;9.912;2023-04-03T07:37:40;4.38;;;2.50;;
52740;SDS011;38634;52.138;9.912;2023-04-03T07:40:24;4.60;;;3.33;;
52740;SDS011;38634;52.138;9.912;2023-04-03T07:43:09;4.90;;;2.70;;
52740;SDS011;38634;52.138;9.912;2023-04-03T07:45:54;5.72;;;3.42;;
52740;SDS011;38634;52.138;9.912;2023-04-03T07:48:39;4.72;;;2.70;;
52740;SDS011;38634;52.138;9.912;2023-04-03T07:51:23;2.38;;;1.90;;
52740;SDS011;38634;52.138;9.912;2023-04-03T07:54:09;4.93;;;2.53;;
52740;SDS011;38634;52.138;9.912;2023-04-03T07:56:54;4.50;;;2.40;;
52740;SDS011;38634;52.138;9.912;2023-04-03T07:59:39;4.60;;;2.50;;
52740;SDS011;38634;52.138;9.912;2023-04-03T08:02:24;4.18;;;2.10;;
52740;SDS011;38634;52.138;9.912;2023-04-03T08:05:09;8.32;;;3.45;;
52740;SDS011;38634;52.138;9.912;2023-04-03T08:07:54;7.55;;;2.90;;
52740;SDS011;38634;52.138;9.912;2023-04-03T08:10:39;7.97;;;2.97;;
52740;SDS011;38634;52.138;9.912;2023-04-03T08:13:24;8.38;;;3.10;;
52740;SDS011;38634;52.138;9.912;2023-04-03T08:16:09;5.35;;;2.40;;
52740;SDS011;38634;52.138;9.912;2023-04-03T08:18:56;8.02;;;2.75;;
52740;SDS011;38634;52.138;9.912;2023-04-03T08:21:41;6.07;;;2.72;;
52740;SDS011;38634;52.138;9.912;2023-04-03T08:24:25;5.25;;;2.63;;
52740;SDS011;38634;52.138;9.912;2023-04-03T08:27:10;4.50;;;2.42;;
52740;SDS011;38634;52.138;9.912;2023-04-03T08:29:55;3.63;;;1.92;;
52740;SDS011;38634;52.138;9.912;2023-04-03T08:32:40;4.40;;;2.05;;
52740;SDS011;38634;52.138;9.912;2023-04-03T08:35:28;5.53;;;2.30;;
52740;SDS011;38634;52.138;9.912;2023-04-03T08:38:13;7.75;;;2.70;;
52740;SDS011;38634;52.138;9.912;2023-04-03T08:41:04;4.20;;;2.03;;
52740;SDS011;38634;52.138;9.912;2023-04-03T08:50:06;7.10;;;2.75;;
52740;SDS011;38634;52.138;9.912;2023-04-03T08:52:57;7.18;;;2.78;;
52740;SDS011;38634;52.138;9.912;2023-04-03T08:55:44;7.47;;;2.88;;
52740;SDS011;38634;52.138;9.912;2023-04-03T08:58:30;8.57;;;2.97;;
52740;SDS011;38634;52.138;9.912;2023-04-03T09:01:51;9.32;;;3.50;;
52740;SDS011;38634;52.138;9.912;2023-04-03T09:04:36;7.22;;;2.95;;
52740;SDS011;38634;52.138;9.912;2023-04-03T09:07:37;7.55;;;2.88;;
52740;SDS011;38634;52.138;9.912;2023-04-03T09:10:28;6.25;;;2.47;;
52740;SDS011;38634;52.138;9.912;2023-04-03T09:13:22;4.30;;;1.95;;
52740;SDS011;38634;52.138;9.912;2023-04-03T09:22:37;9.63;;;2.78;;
52740;SDS011;38634;52.138;9.912;2023-04-03T09:25:34;9.25;;;2.80;;
52740;SDS011;38634;52.138;9.912;2023-04-03T09:28:21;7.88;;;2.90;;
52740;SDS011;38634;52.138;9.912;2023-04-03T09:31:13;10.45;;;3.22;;
52740;SDS011;38634;52.138;9.912;2023-04-03T09:37:10;9.27;;;2.90;;
52740;SDS011;38634;52.138;9.912;2023-04-03T09:40:28;7.25;;;2.65;;
52740;SDS011;38634;52.138;9.912;2023-04-03T09:43:31;6.50;;;2.40;;
52740;SDS011;38634;52.138;9.912;2023-04-03T09:49:16;9.20;;;2.85;;
52740;SDS011;38634;52.138;9.912;2023-04-03T09:52:17;6.80;;;2.28;;
52740;SDS011;38634;52.138;9.912;2023-04-03T09:55:16;7.45;;;2.45;;
52740;SDS011;38634;52.138;9.912;2023-04-03T09:58:05;7.28;;;2.45;;
52740;SDS011;38634;52.138;9.912;2023-04-03T10:01:32;10.90;;;3.00;;
52740;SDS011;38634;52.138;9.912;2023-04-03T10:04:22;8.82;;;2.50;;
52740;SDS011;38634;52.138;9.912;2023-04-03T10:10:20;9.65;;;2.63;;
52740;SDS011;38634;52.138;9.912;2023-04-03T10:13:11;10.18;;;2.83;;
52740;SDS011;38634;52.138;9.912;2023-04-03T10:16:12;9.60;;;2.72;;
52740;SDS011;38634;52.138;9.912;2023-04-03T10:23:24;12.50;;;3.42;;
52740;SDS011;38634;52.138;9.912;2023-04-03T10:29:31;8.65;;;3.03;;
52740;SDS011;38634;52.138;9.912;2023-04-03T10:41:59;9.57;;;2.97;;
52740;SDS011;38634;52.138;9.912;2023-04-03T10:54:57;8.82;;;2.70;;
52740;SDS011;38634;52.138;9.912;2023-04-03T10:57:49;9.45;;;2.95;;
52740;SDS011;38634;52.138;9.912;2023-04-03T11:00:42;8.70;;;3.28;;
52740;SDS011;38634;52.138;9.912;2023-04-03T11:03:44;9.30;;;2.85;;
52740;SDS011;38634;52.138;9.912;2023-04-03T11:06:45;9.43;;;2.88;;
52740;SDS011;38634;52.138;9.912;2023-04-03T11:09:49;11.10;;;3.25;;
52740;SDS011;38634;52.138;9.912;2023-04-03T11:12:40;9.48;;;2.88;;
52740;SDS011;38634;52.138;9.912;2023-04-03T11:15:43;11.57;;;3.05;;
52740;SDS011;38634;52.138;9.912;2023-04-03T11:18:39;10.82;;;4.03;;
52740;SDS011;38634;52.138;9.912;2023-04-03T11:21:56;13.00;;;3.55;;
52740;SDS011;38634;52.138;9.912;2023-04-03T11:24:46;11.70;;;3.10;;
52740;SDS011;38634;52.138;9.912;2023-04-03T11:27:43;9.65;;;3.22;;
52740;SDS011;38634;52.138;9.912;2023-04-03T11:30:47;13.88;;;5.18;;
52740;SDS011;38634;52.138;9.912;2023-04-03T11:33:52;7.40;;;2.95;;
52740;SDS011;38634;52.138;9.912;2023-04-03T11:36:58;9.27;;;2.92;;
52740;SDS011;38634;52.138;9.912;2023-04-03T11:39:52;11.30;;;3.00;;
52740;SDS011;38634;52.138;9.912;2023-04-03T11:42:42;11.23;;;3.17;;
52740;SDS011;38634;52.138;9.912;2023-04-03T11:45:35;11.68;;;2.92;;
52740;SDS011;38634;52.138;9.912;2023-04-03T12:03:31;8.65;;;2.72;;
52740;SDS011;38634;52.138;9.912;2023-04-03T12:09:01;10.90;;;3.35;;
52740;SDS011;38634;52.138;9.912;2023-04-03T12:12:21;8.85;;;2.85;;
52740;SDS011;38634;52.138;9.912;2023-04-03T12:15:37;9.80;;;2.92;;
52740;SDS011;38634;52.138;9.912;2023-04-03T12:27:20;11.10;;;2.85;;
52740;SDS011;38634;52.138;9.912;2023-04-03T12:30:10;7.85;;;2.60;;
52740;SDS011;38634;52.138;9.912;2023-04-03T12:36:18;9.07;;;2.92;;
52740;SDS011;38634;52.138;9.912;2023-04-03T12:39:36;9.40;;;2.80;;
52740;SDS011;38634;52.138;9.912;2023-04-03T12:42:55;7.95;;;2.58;;
52740;SDS011;38634;52.138;9.912;2023-04-03T12:51:38;9.27;;;2.90;;
52740;SDS011;38634;52.138;9.912;2023-04-03T12:57:25;9.48;;;2.67;;
52740;SDS011;38634;52.138;9.912;2023-04-03T13:03:21;10.48;;;2.95;;
52740;SDS011;38634;52.138;9.912;2023-04-03T13:06:14;10.45;;;2.70;;
52740;SDS011;38634;52.138;9.912;2023-04-03T13:09:21;8.10;;;2.17;;
52740;SDS011;38634;52.138;9.912;2023-04-03T13:12:12;35.67;;;8.80;;
52740;SDS011;38634;52.138;9.912;2023-04-03T13:15:01;35.63;;;7.63;;
52740;SDS011;38634;52.138;9.912;2023-04-03T13:18:01;44.08;;;9.23;;
52740;SDS011;38634;52.138;9.912;2023-04-03T13:20:46;28.90;;;6.82;;
52740;SDS011;38634;52.138;9.912;2023-04-03T13:23:32;19.17;;;4.93;;
52740;SDS011;38634;52.138;9.912;2023-04-03T13:26:21;24.08;;;6.68;;
52740;SDS011;38634;52.138;9.912;2023-04-03T13:29:30;33.35;;;8.45;;
52740;SDS011;38634;52.138;9.912;2023-04-03T13:32:22;25.23;;;6.85;;
52740;SDS011;38634;52.138;9.912;2023-04-03T13:41:21;20.77;;;5.95;;
52740;SDS011;38634;52.138;9.912;2023-04-03T13:50:00;12.05;;;4.13;;
52740;SDS011;38634;52.138;9.912;2023-04-03T13:53:01;19.05;;;5.05;;
52740;SDS011;38634;52.138;9.912;2023-04-03T13:56:08;23.55;;;5.35;;
52740;SDS011;38634;52.138;9.912;2023-04-03T13:59:20;16.15;;;4.90;;
52740;SDS011;38634;52.138;9.912;2023-04-03T14:02:38;26.02;;;6.15;;
52740;SDS011;38634;52.138;9.912;2023-04-03T14:05:23;20.75;;;5.40;;
52740;SDS011;38634;52.138;9.912;2023-04-03T14:08:10;23.23;;;6.65;;
52740;SDS011;38634;52.138;9.912;2023-04-03T14:10:54;28.58;;;7.07;;
52740;SDS011;38634;52.138;9.912;2023-04-03T14:13:39;13.05;;;3.90;;
52740;SDS011;38634;52.138;9.912;2023-04-03T14:16:26;15.00;;;4.38;;
52740;SDS011;38634;52.138;9.912;2023-04-03T14:19:24;26.48;;;6.93;;
52740;SDS011;38634;52.138;9.912;2023-04-03T14:22:14;13.63;;;4.68;;
52740;SDS011;38634;52.138;9.912;2023-04-03T14:25:02;30.23;;;8.10;;
52740;SDS011;38634;52.138;9.912;2023-04-03T14:27:50;22.08;;;6.03;;
52740;SDS011;38634;52.138;9.912;2023-04-03T14:30:37;12.18;;;3.72;;
52740;SDS011;38634;52.138;9.912;2023-04-03T14:33:22;18.13;;;5.72;;
52740;SDS011;38634;52.138;9.912;2023-04-03T14:36:13;21.98;;;6.85;;
52740;SDS011;38634;52.138;9.912;2023-04-03T14:39:07;15.23;;;4.53;;
52740;SDS011;38634;52.138;9.912;2023-04-03T14:41:55;21.02;;;6.00;;
52740;SDS011;38634;52.138;9.912;2023-04-03T14:44:39;22.98;;;6.68;;
52740;SDS011;38634;52.138;9.912;2023-04-03T14:47:25;16.00;;;4.93;;
52740;SDS011;38634;52.138;9.912;2023-04-03T14:50:14;11.95;;;3.70;;
52740;SDS011;38634;52.138;9.912;2023-04-03T14:53:02;20.13;;;6.22;;
52740;SDS011;38634;52.138;9.912;2023-04-03T14:55:46;22.17;;;6.57;;
52740;SDS011;38634;52.138;9.912;2023-04-03T14:58:31;12.18;;;5.80;;
52740;SDS011;38634;52.138;9.912;2023-04-03T15:01:16;15.25;;;5.15;;
52740;SDS011;38634;52.138;9.912;2023-04-03T15:04:01;27.10;;;8.23;;
52740;SDS011;38634;52.138;9.912;2023-04-03T15:06:56;13.48;;;4.78;;
52740;SDS011;38634;52.138;9.912;2023-04-03T15:09:40;12.40;;;4.80;;
52740;SDS011;38634;52.138;9.912;2023-04-03T15:12:25;19.10;;;5.88;;
52740;SDS011;38634;52.138;9.912;2023-04-03T15:15:10;23.55;;;6.85;;
52740;SDS011;38634;52.138;9.912;2023-04-03T15:17:55;31.15;;;8.10;;
52740;SDS011;38634;52.138;9.912;2023-04-03T15:20:41;13.38;;;4.05;;
52740;SDS011;38634;52.138;9.912;2023-04-03T15:23:26;20.48;;;5.53;;
52740;SDS011;38634;52.138;9.912;2023-04-03T15:26:13;29.35;;;7.65;;
52740;SDS011;38634;52.138;9.912;2023-04-03T15:28:58;29.95;;;7.90;;
52740;SDS011;38634;52.138;9.912;2023-04-03T15:31:42;18.02;;;5.40;;
52740;SDS011;38634;52.138;9.912;2023-04-03T15:34:27;14.00;;;4.68;;
52740;SDS011;38634;52.138;9.912;2023-04-03T15:37:12;23.48;;;6.63;;
52740;SDS011;38634;52.138;9.912;2023-04-03T15:39:57;23.77;;;6.45;;
52740;SDS011;38634;52.138;9.912;2023-04-03T15:42:42;29.65;;;8.50;;
52740;SDS011;38634;52.138;9.912;2023-04-03T15:45:28;11.60;;;4.25;;
52740;SDS011;38634;52.138;9.912;2023-04-03T15:48:13;17.70;;;5.32;;
52740;SDS011;38634;52.138;9.912;2023-04-03T15:50:59;26.08;;;7.45;;
52740;SDS011;38634;52.138;9.912;2023-04-03T15:53:44;23.50;;;7.28;;
52740;SDS011;38634;52.138;9.912;2023-04-03T15:56:29;18.55;;;5.85;;
52740;SDS011;38634;52.138;9.912;2023-04-03T15:59:14;16.23;;;5.30;;
52740;SDS011;38634;52.138;9.912;2023-04-03T16:01:59;13.02;;;4.22;;
52740;SDS011;38634;52.138;9.912;2023-04-03T16:04:44;29.80;;;7.65;;
52740;SDS011;38634;52.138;9.912;2023-04-03T16:07:29;25.25;;;7.10;;
52740;SDS011;38634;52.138;9.912;2023-04-03T16:10:16;20.30;;;6.35;;
52740;SDS011;38634;52.138;9.912;2023-04-03T16:13:02;19.38;;;6.07;;
52740;SDS011;38634;52.138;9.912;2023-04-03T16:15:47;30.67;;;8.35;;
52740;SDS011;38634;52.138;9.912;2023-04-03T16:18:33;32.55;;;9.07;;
52740;SDS011;38634;52.138;9.912;2023-04-03T16:21:18;17.52;;;5.95;;
52740;SDS011;38634;52.138;9.912;2023-04-03T16:24:03;12.25;;;4.10;;
52740;SDS011;38634;52.138;9.912;2023-04-03T16:26:49;16.48;;;5.22;;
52740;SDS011;38634;52.138;9.912;2023-04-03T16:29:33;22.92;;;6.53;;
52740;SDS011;38634;52.138;9.912;2023-04-03T16:32:18;28.60;;;8.20;;
52740;SDS011;38634;52.138;9.912;2023-04-03T16:35:03;14.85;;;4.82;;
52740;SDS011;38634;52.138;9.912;2023-04-03T16:37:48;14.00;;;4.80;;
52740;SDS011;38634;52.138;9.912;2023-04-03T16:40:32;26.55;;;7.95;;
52740;SDS011;38634;52.138;9.912;2023-04-03T16:43:18;28.27;;;7.90;;
52740;SDS011;38634;52.138;9.912;2023-04-03T16:46:02;20.67;;;6.20;;
52740;SDS011;38634;52.138;9.912;2023-04-03T16:48:47;17.77;;;5.90;;
52740;SDS011;38634;52.138;9.912;2023-04-03T16:51:32;25.42;;;6.88;;
52740;SDS011;38634;52.138;9.912;2023-04-03T16:54:17;27.98;;;8.23;;
52740;SDS011;38634;52.138;9.912;2023-04-03T16:57:02;27.60;;;7.70;;
52740;SDS011;38634;52.138;9.912;2023-04-03T16:59:46;29.30;;;8.05;;
52740;SDS011;38634;52.138;9.912;2023-04-03T17:02:31;15.82;;;5.32;;
52740;SDS011;38634;52.138;9.912;2023-04-03T17:05:16;19.45;;;5.85;;
52740;SDS011;38634;52.138;9.912;2023-04-03T17:08:01;38.50;;;8.88;;
52740;SDS011;38634;52.138;9.912;2023-04-03T17:10:47;24.60;;;6.18;;
52740;SDS011;38634;52.138;9.912;2023-04-03T17:13:37;13.90;;;4.60;;
52740;SDS011;38634;52.138;9.912;2023-04-03T17:16:22;8.70;;;4.05;;
52740;SDS011;38634;52.138;9.912;2023-04-03T17:19:08;24.35;;;7.63;;
52740;SDS011;38634;52.138;9.912;2023-04-03T17:21:52;14.05;;;6.28;;
52740;SDS011;38634;52.138;9.912;2023-04-03T17:24:37;13.98;;;5.88;;
52740;SDS011;38634;52.138;9.912;2023-04-03T17:27:22;4.95;;;3.55;;
52740;SDS011;38634;52.138;9.912;2023-04-03T17:30:06;7.68;;;4.20;;
52740;SDS011;38634;52.138;9.912;2023-04-03T17:32:54;19.13;;;6.82;;
52740;SDS011;38634;52.138;9.912;2023-04-03T17:35:44;13.15;;;5.00;;
52740;SDS011;38634;52.138;9.912;2023-04-03T17:38:32;7.90;;;4.07;;
52740;SDS011;38634;52.138;9.912;2023-04-03T17:41:17;13.10;;;4.70;;
52740;SDS011;38634;52.138;9.912;2023-04-03T17:44:02;18.00;;;7.53;;
52740;SDS011;38634;52.138;9.912;2023-04-03T17:46:47;10.00;;;4.63;;
52740;SDS011;38634;52.138;9.912;2023-04-03T17:49:31;8.40;;;4.00;;
52740;SDS011;38634;52.138;9.912;2023-04-03T17:52:16;9.27;;;4.18;;
52740;SDS011;38634;52.138;9.912;2023-04-03T17:55:03;5.60;;;4.88;;
52740;SDS011;38634;52.138;9.912;2023-04-03T17:57:48;7.03;;;4.55;;
52740;SDS011;38634;52.138;9.912;2023-04-03T18:00:33;6.10;;;5.13;;
52740;SDS011;38634;52.138;9.912;2023-04-03T18:03:19;4.85;;;3.60;;
52740;SDS011;38634;52.138;9.912;2023-04-03T18:06:04;11.35;;;5.50;;
52740;SDS011;38634;52.138;9.912;2023-04-03T18:08:59;18.83;;;6.30;;
52740;SDS011;38634;52.138;9.912;2023-04-03T18:11:48;8.70;;;5.10;;
52740;SDS011;38634;52.138;9.912;2023-04-03T18:14:34;9.15;;;5.75;;
52740;SDS011;38634;52.138;9.912;2023-04-03T18:17:20;7.28;;;4.47;;
52740;SDS011;38634;52.138;9.912;2023-04-03T18:20:05;5.50;;;4.00;;
52740;SDS011;38634;52.138;9.912;2023-04-03T18:22:51;3.75;;;3.28;;
52740;SDS011;38634;52.138;9.912;2023-04-03T18:25:37;5.68;;;4.80;;
52740;SDS011;38634;52.138;9.912;2023-04-03T18:28:22;6.82;;;5.97;;
52740;SDS011;38634;52.138;9.912;2023-04-03T18:31:06;6.28;;;5.18;;
52740;SDS011;38634;52.138;9.912;2023-04-03T18:33:53;4.15;;;3.13;;
52740;SDS011;38634;52.138;9.912;2023-04-03T18:36:41;9.57;;;5.10;;
52740;SDS011;38634;52.138;9.912;2023-04-03T18:39:25;9.45;;;4.63;;
52740;SDS011;38634;52.138;9.912;2023-04-03T18:42:11;12.82;;;5.50;;
52740;SDS011;38634;52.138;9.912;2023-04-03T18:45:00;4.80;;;3.65;;
52740;SDS011;38634;52.138;9.912;2023-04-03T18:47:47;7.95;;;5.05;;
52740;SDS011;38634;52.138;9.912;2023-04-03T18:50:32;5.88;;;4.28;;
52740;SDS011;38634;52.138;9.912;2023-04-03T18:53:17;5.18;;;4.05;;
52740;SDS011;38634;52.138;9.912;2023-04-03T18:56:02;11.02;;;4.47;;
52740;SDS011;38634;52.138;9.912;2023-04-03T18:58:47;19.73;;;6.70;;
52740;SDS011;38634;52.138;9.912;2023-04-03T19:01:32;16.40;;;6.32;;
52740;SDS011;38634;52.138;9.912;2023-04-03T19:04:17;20.02;;;7.78;;
52740;SDS011;38634;52.138;9.912;2023-04-03T19:07:02;19.42;;;6.32;;
52740;SDS011;38634;52.138;9.912;2023-04-03T19:09:49;6.25;;;3.22;;
52740;SDS011;38634;52.138;9.912;2023-04-03T19:12:33;19.75;;;6.07;;
52740;SDS011;38634;52.138;9.912;2023-04-03T19:15:19;17.95;;;7.05;;
52740;SDS011;38634;52.138;9.912;2023-04-03T19:18:04;19.10;;;6.78;;
52740;SDS011;38634;52.138;9.912;2023-04-03T19:20:49;9.55;;;4.55;;
52740;SDS011;38634;52.138;9.912;2023-04-03T19:23:34;9.82;;;4.45;;
52740;SDS011;38634;52.138;9.912;2023-04-03T19:26:19;21.73;;;7.80;;
52740;SDS011;38634;52.138;9.912;2023-04-03T19:29:04;34.13;;;9.52;;
52740;SDS011;38634;52.138;9.912;2023-04-03T19:31:49;24.30;;;7.20;;
52740;SDS011;38634;52.138;9.912;2023-04-03T19:34:35;13.55;;;6.00;;
52740;SDS011;38634;52.138;9.912;2023-04-03T19:37:19;5.15;;;3.60;;
52740;SDS011;38634;52.138;9.912;2023-04-03T19:40:06;6.75;;;4.22;;
52740;SDS011;38634;52.138;9.912;2023-04-03T19:42:52;12.60;;;6.78;;
52740;SDS011;38634;52.138;9.912;2023-04-03T19:45:36;3.25;;;2.95;;
52740;SDS011;38634;52.138;9.912;2023-04-03T19:48:22;3.08;;;2.88;;
52740;SDS011;38634;52.138;9.912;2023-04-03T19:51:07;5.47;;;4.50;;
52740;SDS011;38634;52.138;9.912;2023-04-03T19:53:52;7.03;;;5.60;;
52740;SDS011;38634;52.138;9.912;2023-04-03T19:56:36;5.25;;;4.25;;
52740;SDS011;38634;52.138;9.912;2023-04-03T19:59:21;4.65;;;4.05;;
52740;SDS011;38634;52.138;9.912;2023-04-03T20:02:06;3.90;;;2.92;;
52740;SDS011;38634;52.138;9.912;2023-04-03T20:04:50;4.88;;;4.10;;
52740;SDS011;38634;52.138;9.912;2023-04-03T20:07:35;4.90;;;4.00;;
52740;SDS011;38634;52.138;9.912;2023-04-03T20:10:20;5.07;;;3.60;;
52740;SDS011;38634;52.138;9.912;2023-04-03T20:13:08;5.68;;;3.83;;
52740;SDS011;38634;52.138;9.912;2023-04-03T20:15:55;4.35;;;3.63;;
52740;SDS011;38634;52.138;9.912;2023-04-03T20:18:41;5.00;;;3.63;;
52740;SDS011;38634;52.138;9.912;2023-04-03T20:21:27;5.95;;;3.50;;
52740;SDS011;38634;52.138;9.912;2023-04-03T20:24:15;4.30;;;3.28;;
52740;SDS011;38634;52.138;9.912;2023-04-03T20:27:00;4.82;;;3.33;;
52740;SDS011;38634;52.138;9.912;2023-04-03T20:29:45;6.28;;;3.47;;
52740;SDS011;38634;52.138;9.912;2023-04-03T20:32:29;6.68;;;3.38;;
52740;SDS011;38634;52.138;9.912;2023-04-03T20:35:14;5.03;;;3.90;;
52740;SDS011;38634;52.138;9.912;2023-04-03T20:37:58;3.78;;;3.13;;
52740;SDS011;38634;52.138;9.912;2023-04-03T20:40:43;4.97;;;2.90;;
52740;SDS011;38634;52.138;9.912;2023-04-03T20:43:28;3.58;;;2.53;;
52740;SDS011;38634;52.138;9.912;2023-04-03T20:46:12;5.72;;;3.42;;
52740;SDS011;38634;52.138;9.912;2023-04-03T20:49:02;2.95;;;2.65;;
52740;SDS011;38634;52.138;9.912;2023-04-03T20:51:46;7.50;;;3.90;;
52740;SDS011;38634;52.138;9.912;2023-04-03T20:54:33;5.20;;;3.20;;
52740;SDS011;38634;52.138;9.912;2023-04-03T20:57:18;6.93;;;3.72;;
52740;SDS011;38634;52.138;9.912;2023-04-03T21:00:04;6.53;;;3.30;;
52740;SDS011;38634;52.138;9.912;2023-04-03T21:02:49;6.95;;;3.95;;
52740;SDS011;38634;52.138;9.912;2023-04-03T21:05:34;5.07;;;3.13;;
52740;SDS011;38634;52.138;9.912;2023-04-03T21:21:59;8.77;;;3.97;;
52740;SDS011;38634;52.138;9.912;2023-04-03T21:24:44;5.82;;;3.75;;
52740;SDS011;38634;52.138;9.912;2023-04-03T21:27:28;6.22;;;3.30;;
52740;SDS011;38634;52.138;9.912;2023-04-03T21:30:13;6.95;;;4.07;;
52740;SDS011;38634;52.138;9.912;2023-04-03T21:32:58;5.63;;;3.30;;
52740;SDS011;38634;52.138;9.912;2023-04-03T21:35:42;3.90;;;3.08;;
52740;SDS011;38634;52.138;9.912;2023-04-03T21:38:30;6.97;;;4.10;;
52740;SDS011;38634;52.138;9.912;2023-04-03T21:41:16;15.82;;;4.20;;
52740;SDS011;38634;52.138;9.912;2023-04-03T21:44:04;5.75;;;3.85;;
52740;SDS011;38634;52.138;9.912;2023-04-03T21:46:48;6.40;;;4.20;;
52740;SDS011;38634;52.138;9.912;2023-04-03T21:49:37;4.68;;;3.30;;
52740;SDS011;38634;52.138;9.912;2023-04-03T21:52:21;7.43;;;3.70;;
52740;SDS011;38634;52.138;9.912;2023-04-03T21:55:06;4.20;;;3.13;;
52740;SDS011;38634;52.138;9.912;2023-04-03T21:57:51;9.77;;;3.83;;
52740;SDS011;38634;52.138;9.912;2023-04-03T22:00:36;7.55;;;3.13;;
52740;SDS011;38634;52.138;9.912;2023-04-03T22:03:24;4.22;;;3.60;;
52740;SDS011;38634;52.138;9.912;2023-04-03T22:06:12;7.60;;;4.22;;
52740;SDS011;38634;52.138;9.912;2023-04-03T22:08:59;15.55;;;4.50;;
52740;SDS011;38634;52.138;9.912;2023-04-03T22:11:44;5.22;;;3.35;;
52740;SDS011;38634;52.138;9.912;2023-04-03T22:14:32;3.22;;;2.85;;
52740;SDS011;38634;52.138;9.912;2023-04-03T22:17:17;6.63;;;4.00;;
52740;SDS011;38634;52.138;9.912;2023-04-03T22:20:02;7.35;;;4.05;;
52740;SDS011;38634;52.138;9.912;2023-04-03T22:22:48;5.35;;;3.28;;
52740;SDS011;38634;52.138;9.912;2023-04-03T22:25:35;6.80;;;3.55;;
52740;SDS011;38634;52.138;9.912;2023-04-03T22:28:20;13.05;;;3.95;;
52740;SDS011;38634;52.138;9.912;2023-04-03T22:31:05;13.18;;;3.75;;
52740;SDS011;38634;52.138;9.912;2023-04-03T22:33:50;25.02;;;9.18;;
52740;SDS011;38634;52.138;9.912;2023-04-03T22:36:35;5.95;;;3.40;;
52740;SDS011;38634;52.138;9.912;2023-04-03T22:39:21;21.10;;;8.25;;
52740;SDS011;38634;52.138;9.912;2023-04-03T22:42:06;9.93;;;5.20;;
52740;SDS011;38634;52.138;9.912;2023-04-03T22:44:51;9.88;;;5.18;;
52740;SDS011;38634;52.138;9.912;2023-04-03T22:47:36;8.63;;;4.20;;
52740;SDS011;38634;52.138;9.912;2023-04-03T22:50:21;8.15;;;5.88;;
52740;SDS011;38634;52.138;9.912;2023-04-03T22:53:06;13.30;;;5.78;;
52740;SDS011;38634;52.138;9.912;2023-04-03T22:55:58;8.02;;;4.63;;
52740;SDS011;38634;52.138;9.912;2023-04-03T22:59:00;23.13;;;7.90;;
52740;SDS011;38634;52.138;9.912;2023-04-03T23:01:45;9.70;;;4.60;;
52740;SDS011;38634;52.138;9.912;2023-04-03T23:04:41;12.73;;;5.15;;
52740;SDS011;38634;52.138;9.912;2023-04-03T23:07:33;12.18;;;4.65;;
52740;SDS011;38634;52.138;9.912;2023-04-03T23:10:18;16.58;;;5.65;;
52740;SDS011;38634;52.138;9.912;2023-04-03T23:13:04;36.40;;;9.18;;
52740;SDS011;38634;52.138;9.912;2023-04-03T23:15:53;28.73;;;8.35;;
52740;SDS011;38634;52.138;9.912;2023-04-03T23:18:42;19.33;;;7.70;;
52740;SDS011;38634;52.138;9.912;2023-04-03T23:21:28;24.35;;;8.02;;
52740;SDS011;38634;52.138;9.912;2023-04-03T23:24:21;27.95;;;7.68;;
52740;SDS011;38634;52.138;9.912;2023-04-03T23:27:06;19.20;;;6.70;;
52740;SDS011;38634;52.138;9.912;2023-04-03T23:29:51;19.65;;;6.80;;
52740;SDS011;38634;52.138;9.912;2023-04-03T23:32:38;27.73;;;7.80;;
52740;SDS011;38634;52.138;9.912;2023-04-03T23:35:26;22.00;;;6.72;;
52740;SDS011;38634;52.138;9.912;2023-04-03T23:38:14;19.10;;;6.55;;
52740;SDS011;38634;52.138;9.912;2023-04-03T23:41:02;33.30;;;9.30;;
52740;SDS011;38634;52.138;9.912;2023-04-03T23:43:47;33.10;;;9.43;;
52740;SDS011;38634;52.138;9.912;2023-04-03T23:46:31;21.25;;;6.60;;
52740;SDS011;38634;52.138;9.912;2023-04-03T23:49:16;8.20;;;4.43;;
52740;SDS011;38634;52.138;9.912;2023-04-03T23:52:01;13.18;;;5.28;;
52740;SDS011;38634;52.138;9.912;2023-04-03T23:54:48;16.88;;;6.40;;
52740;SDS011;38634;52.138;9.912;2023-04-03T23:57:33;14.30;;;6.30;;
